sensor_id;sensor_type;location;lat;lon;timestamp;pressure;altitude;pressure_sealevel;temperature;humidity
25232;BME280;13176;51.140;6.290;2023-10-19T00:01:22;98682.06;;;15.35;91.43
25232;BME280;13176;51.140;6.290;2023-10-19T00:03:52;98707.09;;;15.28;92.82
25232;BME280;13176;51.140;6.290;2023-10-19T00:06:22;98705.00;;;15.19;93.41
25232;BME280;13176;51.140;6.290;2023-10-19T00:08:49;98706.28;;;15.40;91.83
25232;BME280;13176;51.140;6.290;2023-10-19T00:11:19;98680.19;;;15.37;91.83
25232;BME280;13176;51.140;6.290;2023-10-19T00:13:50;98701.59;;;15.31;92.67
25232;BME280;13176;51.140;6.290;2023-10-19T00:16:16;98689.00;;;15.36;92.59
25232;BME280;13176;51.140;6.290;2023-10-19T00:18:44;98678.69;;;15.33;92.31
25232;BME280;13176;51.140;6.290;2023-10-19T00:21:11;98674.66;;;15.42;91.47
25232;BME280;13176;51.140;6.290;2023-10-19T00:23:47;98671.41;;;15.24;92.23
25232;BME280;13176;51.140;6.290;2023-10-19T00:26:14;98693.28;;;15.51;91.41
25232;BME280;13176;51.140;6.290;2023-10-19T00:28:43;98706.56;;;15.62;91.32
25232;BME280;13176;51.140;6.290;2023-10-19T00:31:12;98705.91;;;15.59;91.36
25232;BME280;13176;51.140;6.290;2023-10-19T00:33:40;98666.75;;;15.42;91.29
25232;BME280;13176;51.140;6.290;2023-10-19T00:36:08;98683.59;;;15.52;91.22
25232;BME280;13176;51.140;6.290;2023-10-19T00:38:35;98715.41;;;15.61;91.49
25232;BME280;13176;51.140;6.290;2023-10-19T00:41:02;98713.38;;;15.65;91.54
25232;BME280;13176;51.140;6.290;2023-10-19T00:43:34;98708.03;;;15.66;91.13
25232;BME280;13176;51.140;6.290;2023-10-19T00:46:12;98660.25;;;15.47;91.37
25232;BME280;13176;51.140;6.290;2023-10-19T00:48:50;98684.59;;;15.63;90.49
25232;BME280;13176;51.140;6.290;2023-10-19T00:51:24;98699.31;;;15.78;90.33
25232;BME280;13176;51.140;6.290;2023-10-19T00:54:05;98702.06;;;15.77;90.73
25232;BME280;13176;51.140;6.290;2023-10-19T00:56:37;98620.88;;;15.33;90.20
25232;BME280;13176;51.140;6.290;2023-10-19T00:59:07;98660.94;;;15.63;90.92
25232;BME280;13176;51.140;6.290;2023-10-19T01:01:53;98623.03;;;15.41;90.30
25232;BME280;13176;51.140;6.290;2023-10-19T01:04:22;98687.84;;;15.79;89.88
25232;BME280;13176;51.140;6.290;2023-10-19T01:06:58;98671.22;;;15.66;90.13
25232;BME280;13176;51.140;6.290;2023-10-19T01:09:31;98703.66;;;15.92;90.45
25232;BME280;13176;51.140;6.290;2023-10-19T01:12:02;98619.94;;;15.34;90.18
25232;BME280;13176;51.140;6.290;2023-10-19T01:17:50;98658.81;;;15.68;89.98
25232;BME280;13176;51.140;6.290;2023-10-19T01:20:30;98685.03;;;15.82;90.68
25232;BME280;13176;51.140;6.290;2023-10-19T01:23:05;98664.72;;;15.72;90.49
25232;BME280;13176;51.140;6.290;2023-10-19T01:25:56;98682.63;;;15.92;90.05
25232;BME280;13176;51.140;6.290;2023-10-19T01:28:24;98690.84;;;15.99;89.79
25232;BME280;13176;51.140;6.290;2023-10-19T01:33:49;98667.69;;;15.92;89.36
25232;BME280;13176;51.140;6.290;2023-10-19T01:36:16;98671.25;;;15.91;89.26
25232;BME280;13176;51.140;6.290;2023-10-19T01:38:49;98638.09;;;15.76;88.86
25232;BME280;13176;51.140;6.290;2023-10-19T01:41:15;98660.75;;;15.91;89.94
25232;BME280;13176;51.140;6.290;2023-10-19T01:43:46;98678.84;;;16.08;89.33
25232;BME280;13176;51.140;6.290;2023-10-19T01:46:14;98651.78;;;15.94;89.37
25232;BME280;13176;51.140;6.290;2023-10-19T01:48:50;98633.91;;;15.86;90.01
25232;BME280;13176;51.140;6.290;2023-10-19T01:51:24;98655.28;;;15.94;89.99
25232;BME280;13176;51.140;6.290;2023-10-19T01:53:53;98662.50;;;16.03;90.97
25232;BME280;13176;51.140;6.290;2023-10-19T01:56:22;98673.78;;;16.05;91.06
25232;BME280;13176;51.140;6.290;2023-10-19T01:58:49;98670.41;;;16.03;91.40
25232;BME280;13176;51.140;6.290;2023-10-19T02:01:21;98617.28;;;15.73;92.17
25232;BME280;13176;51.140;6.290;2023-10-19T02:04:03;98669.78;;;16.12;91.86
25232;BME280;13176;51.140;6.290;2023-10-19T02:06:32;98667.28;;;16.23;92.48
25232;BME280;13176;51.140;6.290;2023-10-19T02:09:05;98651.47;;;16.23;92.46
25232;BME280;13176;51.140;6.290;2023-10-19T02:11:55;98656.31;;;16.29;93.34
25232;BME280;13176;51.140;6.290;2023-10-19T02:14:24;98634.22;;;16.19;94.24
25232;BME280;13176;51.140;6.290;2023-10-19T02:16:55;98648.25;;;16.32;95.36
25232;BME280;13176;51.140;6.290;2023-10-19T02:19:25;98666.00;;;16.53;94.84
25232;BME280;13176;51.140;6.290;2023-10-19T02:21:54;98641.38;;;16.42;94.94
25232;BME280;13176;51.140;6.290;2023-10-19T02:24:22;98637.78;;;16.43;95.70
25232;BME280;13176;51.140;6.290;2023-10-19T02:26:54;98652.94;;;16.52;96.58
25232;BME280;13176;51.140;6.290;2023-10-19T02:29:22;98662.19;;;16.70;95.90
25232;BME280;13176;51.140;6.290;2023-10-19T02:31:48;98644.69;;;16.69;96.29
25232;BME280;13176;51.140;6.290;2023-10-19T02:34:16;98616.94;;;16.52;96.17
25232;BME280;13176;51.140;6.290;2023-10-19T02:36:43;98656.88;;;16.82;95.38
25232;BME280;13176;51.140;6.290;2023-10-19T02:39:12;98610.19;;;16.48;96.09
25232;BME280;13176;51.140;6.290;2023-10-19T02:41:45;98643.19;;;16.77;96.84
25232;BME280;13176;51.140;6.290;2023-10-19T02:44:17;98654.97;;;16.84;97.02
25232;BME280;13176;51.140;6.290;2023-10-19T02:46:48;98628.69;;;16.72;97.65
25232;BME280;13176;51.140;6.290;2023-10-19T02:49:17;98643.88;;;16.92;99.32
25232;BME280;13176;51.140;6.290;2023-10-19T02:51:49;98649.94;;;17.05;97.08
25232;BME280;13176;51.140;6.290;2023-10-19T02:54:20;98611.53;;;16.90;96.77
25232;BME280;13176;51.140;6.290;2023-10-19T02:56:53;98639.66;;;17.13;98.46
25232;BME280;13176;51.140;6.290;2023-10-19T02:59:22;98612.72;;;17.09;97.37
25232;BME280;13176;51.140;6.290;2023-10-19T03:01:57;98613.31;;;17.13;96.67
25232;BME280;13176;51.140;6.290;2023-10-19T03:04:39;98616.44;;;17.17;97.01
25232;BME280;13176;51.140;6.290;2023-10-19T03:07:08;98590.97;;;16.95;96.82
25232;BME280;13176;51.140;6.290;2023-10-19T03:09:34;98640.91;;;17.19;97.00
25232;BME280;13176;51.140;6.290;2023-10-19T03:12:04;98605.47;;;17.00;97.19
25232;BME280;13176;51.140;6.290;2023-10-19T03:14:32;98627.44;;;17.12;95.58
25232;BME280;13176;51.140;6.290;2023-10-19T03:16:59;98636.38;;;17.21;95.45
25232;BME280;13176;51.140;6.290;2023-10-19T03:19:27;98627.69;;;17.09;94.88
25232;BME280;13176;51.140;6.290;2023-10-19T03:21:54;98511.41;;;16.43;94.69
25232;BME280;13176;51.140;6.290;2023-10-19T03:24:22;98610.53;;;17.03;93.96
25232;BME280;13176;51.140;6.290;2023-10-19T03:29:39;98550.09;;;16.66;93.82
25232;BME280;13176;51.140;6.290;2023-10-19T03:32:06;98594.84;;;17.02;93.84
25232;BME280;13176;51.140;6.290;2023-10-19T03:34:35;98560.97;;;16.85;93.79
25232;BME280;13176;51.140;6.290;2023-10-19T03:37:05;98513.41;;;16.52;94.01
25232;BME280;13176;51.140;6.290;2023-10-19T03:39:33;98597.03;;;17.08;94.02
25232;BME280;13176;51.140;6.290;2023-10-19T03:42:00;98572.28;;;16.98;94.30
25232;BME280;13176;51.140;6.290;2023-10-19T03:44:27;98519.75;;;16.73;93.83
25232;BME280;13176;51.140;6.290;2023-10-19T03:47:05;98566.66;;;16.91;94.07
25232;BME280;13176;51.140;6.290;2023-10-19T03:49:32;98605.47;;;17.23;94.04
25232;BME280;13176;51.140;6.290;2023-10-19T03:52:20;98596.81;;;17.21;93.98
25232;BME280;13176;51.140;6.290;2023-10-19T03:54:54;98496.44;;;16.56;93.41
25232;BME280;13176;51.140;6.290;2023-10-19T03:57:21;98505.50;;;16.52;93.68
25232;BME280;13176;51.140;6.290;2023-10-19T03:59:56;98506.00;;;16.57;93.89
25232;BME280;13176;51.140;6.290;2023-10-19T04:02:27;98567.03;;;16.98;94.47
25232;BME280;13176;51.140;6.290;2023-10-19T04:04:55;98577.63;;;17.09;93.80
25232;BME280;13176;51.140;6.290;2023-10-19T04:07:23;98521.44;;;16.74;93.91
25232;BME280;13176;51.140;6.290;2023-10-19T04:09:54;98404.88;;;15.89;93.68
25232;BME280;13176;51.140;6.290;2023-10-19T04:12:34;98489.88;;;16.38;93.86
25232;BME280;13176;51.140;6.290;2023-10-19T04:15:04;98583.72;;;16.86;94.25
25232;BME280;13176;51.140;6.290;2023-10-19T04:17:46;98525.69;;;16.64;93.28
25232;BME280;13176;51.140;6.290;2023-10-19T04:20:14;98591.03;;;17.06;92.97
25232;BME280;13176;51.140;6.290;2023-10-19T04:22:45;98575.88;;;16.97;92.39
25232;BME280;13176;51.140;6.290;2023-10-19T04:25:13;98571.56;;;16.96;92.52
25232;BME280;13176;51.140;6.290;2023-10-19T04:27:39;98594.91;;;17.23;92.55
25232;BME280;13176;51.140;6.290;2023-10-19T04:30:12;98600.19;;;17.23;94.38
25232;BME280;13176;51.140;6.290;2023-10-19T04:32:42;98608.78;;;17.38;93.30
25232;BME280;13176;51.140;6.290;2023-10-19T04:35:10;98597.56;;;17.23;92.37
25232;BME280;13176;51.140;6.290;2023-10-19T04:37:39;98589.28;;;17.17;92.58
25232;BME280;13176;51.140;6.290;2023-10-19T04:40:11;98611.97;;;17.30;93.01
25232;BME280;13176;51.140;6.290;2023-10-19T04:42:38;98597.28;;;17.15;93.10
25232;BME280;13176;51.140;6.290;2023-10-19T04:45:05;98515.81;;;16.78;93.01
25232;BME280;13176;51.140;6.290;2023-10-19T04:47:33;98593.13;;;17.24;92.80
25232;BME280;13176;51.140;6.290;2023-10-19T04:50:03;98397.44;;;16.06;92.57
25232;BME280;13176;51.140;6.290;2023-10-19T04:52:30;98560.59;;;17.02;92.15
25232;BME280;13176;51.140;6.290;2023-10-19T04:54:57;98552.53;;;16.92;92.23
25232;BME280;13176;51.140;6.290;2023-10-19T04:57:24;98601.28;;;17.21;92.78
25232;BME280;13176;51.140;6.290;2023-10-19T04:59:50;98517.22;;;16.71;92.45
25232;BME280;13176;51.140;6.290;2023-10-19T05:02:17;98583.63;;;17.11;92.57
25232;BME280;13176;51.140;6.290;2023-10-19T05:04:44;98553.56;;;16.90;93.51
25232;BME280;13176;51.140;6.290;2023-10-19T05:07:15;98582.38;;;17.04;93.60
25232;BME280;13176;51.140;6.290;2023-10-19T05:09:45;98602.09;;;17.21;93.07
25232;BME280;13176;51.140;6.290;2023-10-19T05:12:13;98538.72;;;16.89;92.95
25232;BME280;13176;51.140;6.290;2023-10-19T05:14:42;98486.34;;;16.50;92.49
25232;BME280;13176;51.140;6.290;2023-10-19T05:17:10;98513.47;;;16.63;92.51
25232;BME280;13176;51.140;6.290;2023-10-19T05:19:38;98616.31;;;17.31;92.48
25232;BME280;13176;51.140;6.290;2023-10-19T05:22:06;98588.41;;;17.16;92.54
25232;BME280;13176;51.140;6.290;2023-10-19T05:24:33;98585.06;;;17.14;93.31
25232;BME280;13176;51.140;6.290;2023-10-19T05:27:00;98579.19;;;17.11;92.25
25232;BME280;13176;51.140;6.290;2023-10-19T05:29:27;98609.47;;;17.29;92.53
25232;BME280;13176;51.140;6.290;2023-10-19T05:31:54;98593.69;;;17.16;92.47
25232;BME280;13176;51.140;6.290;2023-10-19T05:34:21;98605.91;;;17.17;92.50
25232;BME280;13176;51.140;6.290;2023-10-19T05:36:57;98588.63;;;17.13;91.98
25232;BME280;13176;51.140;6.290;2023-10-19T05:39:25;98614.78;;;17.16;91.75
25232;BME280;13176;51.140;6.290;2023-10-19T05:41:55;98604.72;;;17.11;91.75
25232;BME280;13176;51.140;6.290;2023-10-19T05:44:22;98579.09;;;16.89;91.39
25232;BME280;13176;51.140;6.290;2023-10-19T05:46:51;98591.69;;;16.97;90.97
25232;BME280;13176;51.140;6.290;2023-10-19T05:49:18;98570.25;;;16.78;90.56
25232;BME280;13176;51.140;6.290;2023-10-19T05:51:44;98594.03;;;16.89;91.46
25232;BME280;13176;51.140;6.290;2023-10-19T05:54:12;98575.31;;;16.81;90.85
25232;BME280;13176;51.140;6.290;2023-10-19T05:56:38;98588.16;;;16.85;91.10
25232;BME280;13176;51.140;6.290;2023-10-19T05:59:05;98597.69;;;16.99;91.95
25232;BME280;13176;51.140;6.290;2023-10-19T06:01:36;98628.91;;;17.15;91.83
25232;BME280;13176;51.140;6.290;2023-10-19T06:04:03;98563.56;;;16.74;92.02
25232;BME280;13176;51.140;6.290;2023-10-19T06:06:31;98585.75;;;16.82;92.00
25232;BME280;13176;51.140;6.290;2023-10-19T06:08:58;98565.94;;;16.77;93.10
25232;BME280;13176;51.140;6.290;2023-10-19T06:11:28;98581.72;;;16.89;91.94
25232;BME280;13176;51.140;6.290;2023-10-19T06:14:00;98568.84;;;16.74;92.10
25232;BME280;13176;51.140;6.290;2023-10-19T06:16:27;98602.16;;;16.86;92.28
25232;BME280;13176;51.140;6.290;2023-10-19T06:18:55;98623.53;;;16.94;92.45
25232;BME280;13176;51.140;6.290;2023-10-19T06:21:21;98609.63;;;16.92;92.62
25232;BME280;13176;51.140;6.290;2023-10-19T06:23:48;98569.78;;;16.73;92.20
25232;BME280;13176;51.140;6.290;2023-10-19T06:26:27;98649.16;;;17.15;91.98
25232;BME280;13176;51.140;6.290;2023-10-19T06:28:53;98642.00;;;17.17;91.52
25232;BME280;13176;51.140;6.290;2023-10-19T06:31:25;98626.47;;;17.02;91.21
25232;BME280;13176;51.140;6.290;2023-10-19T06:33:52;98637.97;;;17.12;90.80
25232;BME280;13176;51.140;6.290;2023-10-19T06:36:19;98621.06;;;17.03;90.70
25232;BME280;13176;51.140;6.290;2023-10-19T06:38:45;98588.38;;;16.82;90.08
25232;BME280;13176;51.140;6.290;2023-10-19T06:41:13;98653.25;;;17.19;90.06
25232;BME280;13176;51.140;6.290;2023-10-19T06:43:40;98629.53;;;16.96;90.32
25232;BME280;13176;51.140;6.290;2023-10-19T06:46:08;98636.78;;;17.05;89.87
25232;BME280;13176;51.140;6.290;2023-10-19T06:48:38;98616.56;;;16.93;91.03
25232;BME280;13176;51.140;6.290;2023-10-19T06:51:05;98545.13;;;16.50;90.33
25232;BME280;13176;51.140;6.290;2023-10-19T06:53:32;98612.25;;;16.92;90.55
25232;BME280;13176;51.140;6.290;2023-10-19T06:56:00;98636.34;;;17.11;90.36
25232;BME280;13176;51.140;6.290;2023-10-19T06:58:26;98633.19;;;17.06;90.78
25232;BME280;13176;51.140;6.290;2023-10-19T07:00:53;98648.09;;;17.17;90.71
25232;BME280;13176;51.140;6.290;2023-10-19T07:03:23;98656.94;;;17.16;90.97
25232;BME280;13176;51.140;6.290;2023-10-19T07:05:51;98562.75;;;16.61;91.27
25232;BME280;13176;51.140;6.290;2023-10-19T07:08:19;98656.94;;;17.16;90.84
25232;BME280;13176;51.140;6.290;2023-10-19T07:10:47;98624.78;;;17.01;90.75
25232;BME280;13176;51.140;6.290;2023-10-19T07:13:17;98623.81;;;17.02;90.52
25232;BME280;13176;51.140;6.290;2023-10-19T07:15:45;98671.88;;;17.28;90.85
25232;BME280;13176;51.140;6.290;2023-10-19T07:18:13;98524.31;;;16.35;91.15
25232;BME280;13176;51.140;6.290;2023-10-19T07:20:40;98559.41;;;16.59;91.44
25232;BME280;13176;51.140;6.290;2023-10-19T07:23:09;98657.34;;;17.23;91.51
25232;BME280;13176;51.140;6.290;2023-10-19T07:25:46;98663.22;;;17.26;91.70
25232;BME280;13176;51.140;6.290;2023-10-19T07:28:21;98666.41;;;17.31;91.80
25232;BME280;13176;51.140;6.290;2023-10-19T07:30:48;98624.56;;;17.04;91.78
25232;BME280;13176;51.140;6.290;2023-10-19T07:33:18;98641.75;;;17.20;91.79
25232;BME280;13176;51.140;6.290;2023-10-19T07:35:46;98651.88;;;17.26;91.78
25232;BME280;13176;51.140;6.290;2023-10-19T07:38:13;98636.59;;;17.18;91.72
25232;BME280;13176;51.140;6.290;2023-10-19T07:40:40;98593.31;;;17.10;91.82
25232;BME280;13176;51.140;6.290;2023-10-19T07:43:07;98558.63;;;16.93;92.04
25232;BME280;13176;51.140;6.290;2023-10-19T07:45:35;98552.53;;;16.92;92.04
25232;BME280;13176;51.140;6.290;2023-10-19T07:48:04;98572.06;;;17.01;92.67
25232;BME280;13176;51.140;6.290;2023-10-19T07:50:35;98658.25;;;17.58;92.67
25232;BME280;13176;51.140;6.290;2023-10-19T07:53:02;98572.81;;;17.13;92.78
25232;BME280;13176;51.140;6.290;2023-10-19T07:55:29;98615.50;;;17.42;92.79
25232;BME280;13176;51.140;6.290;2023-10-19T07:57:58;98657.94;;;17.73;93.22
25232;BME280;13176;51.140;6.290;2023-10-19T08:00:30;98575.81;;;17.32;93.59
25232;BME280;13176;51.140;6.290;2023-10-19T08:02:57;98595.16;;;17.44;93.80
25232;BME280;13176;51.140;6.290;2023-10-19T08:05:26;98613.50;;;17.56;93.83
25232;BME280;13176;51.140;6.290;2023-10-19T08:07:54;98621.09;;;17.72;94.58
25232;BME280;13176;51.140;6.290;2023-10-19T08:10:20;98603.22;;;17.64;94.25
25232;BME280;13176;51.140;6.290;2023-10-19T08:12:48;98639.50;;;17.95;94.63
25232;BME280;13176;51.140;6.290;2023-10-19T08:15:16;98565.41;;;17.42;94.61
25232;BME280;13176;51.140;6.290;2023-10-19T08:17:46;98583.78;;;17.54;93.78
25232;BME280;13176;51.140;6.290;2023-10-19T08:20:14;98564.81;;;17.49;93.99
25232;BME280;13176;51.140;6.290;2023-10-19T08:22:54;98637.81;;;17.94;93.71
25232;BME280;13176;51.140;6.290;2023-10-19T08:25:26;98604.72;;;17.79;92.37
25232;BME280;13176;51.140;6.290;2023-10-19T08:28:02;98501.69;;;17.24;91.50
25232;BME280;13176;51.140;6.290;2023-10-19T08:30:28;98555.50;;;17.56;91.04
25232;BME280;13176;51.140;6.290;2023-10-19T08:32:55;98521.81;;;17.49;90.40
25232;BME280;13176;51.140;6.290;2023-10-19T08:35:24;98609.31;;;18.10;92.06
25232;BME280;13176;51.140;6.290;2023-10-19T08:37:56;98628.44;;;18.25;91.58
25232;BME280;13176;51.140;6.290;2023-10-19T08:40:25;98632.25;;;18.42;92.37
25232;BME280;13176;51.140;6.290;2023-10-19T08:42:54;98583.41;;;18.26;91.98
25232;BME280;13176;51.140;6.290;2023-10-19T08:45:21;98614.25;;;18.58;92.69
25232;BME280;13176;51.140;6.290;2023-10-19T08:47:56;98600.97;;;18.80;92.82
25232;BME280;13176;51.140;6.290;2023-10-19T08:50:27;98585.97;;;18.81;90.32
25232;BME280;13176;51.140;6.290;2023-10-19T08:52:57;98621.22;;;19.02;90.37
25232;BME280;13176;51.140;6.290;2023-10-19T08:55:24;98608.50;;;18.96;90.23
25232;BME280;13176;51.140;6.290;2023-10-19T08:58:11;98618.81;;;19.21;89.61
25232;BME280;13176;51.140;6.290;2023-10-19T09:00:45;98614.63;;;19.39;89.65
25232;BME280;13176;51.140;6.290;2023-10-19T09:03:14;98605.91;;;19.58;89.39
25232;BME280;13176;51.140;6.290;2023-10-19T09:05:43;98600.00;;;19.55;89.74
25232;BME280;13176;51.140;6.290;2023-10-19T09:08:17;98605.38;;;19.64;88.25
25232;BME280;13176;51.140;6.290;2023-10-19T09:10:55;98597.06;;;19.69;87.65
25232;BME280;13176;51.140;6.290;2023-10-19T09:13:23;98561.53;;;19.51;87.78
25232;BME280;13176;51.140;6.290;2023-10-19T09:15:54;98585.03;;;19.65;88.72
25232;BME280;13176;51.140;6.290;2023-10-19T09:18:24;98564.56;;;19.87;86.47
25232;BME280;13176;51.140;6.290;2023-10-19T09:20:54;98568.63;;;19.91;85.18
25232;BME280;13176;51.140;6.290;2023-10-19T09:23:39;98562.38;;;19.92;85.18
25232;BME280;13176;51.140;6.290;2023-10-19T09:26:06;98586.66;;;19.97;85.81
25232;BME280;13176;51.140;6.290;2023-10-19T09:28:35;98556.22;;;19.92;85.42
25232;BME280;13176;51.140;6.290;2023-10-19T09:31:03;98581.72;;;20.13;82.95
25232;BME280;13176;51.140;6.290;2023-10-19T09:33:32;98564.69;;;20.06;83.70
25232;BME280;13176;51.140;6.290;2023-10-19T09:36:02;98586.25;;;20.32;84.81
25232;BME280;13176;51.140;6.290;2023-10-19T09:38:31;98575.81;;;20.30;86.10
25232;BME280;13176;51.140;6.290;2023-10-19T09:40:58;98519.41;;;20.09;86.52
25232;BME280;13176;51.140;6.290;2023-10-19T09:43:33;98554.22;;;20.44;83.96
25232;BME280;13176;51.140;6.290;2023-10-19T09:46:05;98568.81;;;20.68;84.37
25232;BME280;13176;51.140;6.290;2023-10-19T09:48:32;98565.16;;;20.60;83.36
25232;BME280;13176;51.140;6.290;2023-10-19T09:51:03;98535.31;;;20.58;84.19
25232;BME280;13176;51.140;6.290;2023-10-19T09:53:30;98562.72;;;20.87;81.85
25232;BME280;13176;51.140;6.290;2023-10-19T09:55:58;98568.59;;;20.81;78.60
25232;BME280;13176;51.140;6.290;2023-10-19T09:58:33;98584.22;;;20.84;78.39
25232;BME280;13176;51.140;6.290;2023-10-19T10:01:00;98504.81;;;20.24;78.18
25232;BME280;13176;51.140;6.290;2023-10-19T10:03:45;98594.22;;;20.71;78.96
25232;BME280;13176;51.140;6.290;2023-10-19T10:06:14;98586.13;;;20.72;79.03
25232;BME280;13176;51.140;6.290;2023-10-19T10:08:42;98514.19;;;20.28;78.96
25232;BME280;13176;51.140;6.290;2023-10-19T10:13:43;98562.69;;;20.68;79.79
25232;BME280;13176;51.140;6.290;2023-10-19T10:18:53;98579.94;;;21.21;77.38
25232;BME280;13176;51.140;6.290;2023-10-19T10:21:21;98528.09;;;21.55;77.40
25232;BME280;13176;51.140;6.290;2023-10-19T10:24:00;98591.00;;;22.19;73.81
25232;BME280;13176;51.140;6.290;2023-10-19T10:26:30;98557.09;;;23.11;69.12
25232;BME280;13176;51.140;6.290;2023-10-19T10:29:14;98547.06;;;24.83;63.12
25232;BME280;13176;51.140;6.290;2023-10-19T10:31:47;98544.56;;;26.25;56.39
25232;BME280;13176;51.140;6.290;2023-10-19T10:37:04;98513.63;;;25.84;55.17
25232;BME280;13176;51.140;6.290;2023-10-19T10:39:35;98543.34;;;25.25;56.15
25232;BME280;13176;51.140;6.290;2023-10-19T10:42:07;98537.63;;;24.22;60.91
25232;BME280;13176;51.140;6.290;2023-10-19T10:44:42;98536.88;;;23.18;63.67
25232;BME280;13176;51.140;6.290;2023-10-19T10:47:21;98523.88;;;22.53;67.07
25232;BME280;13176;51.140;6.290;2023-10-19T10:49:52;98559.66;;;22.59;68.58
25232;BME280;13176;51.140;6.290;2023-10-19T10:52:24;98520.72;;;22.31;69.98
25232;BME280;13176;51.140;6.290;2023-10-19T10:54:51;98549.66;;;22.43;70.13
25232;BME280;13176;51.140;6.290;2023-10-19T10:57:19;98554.28;;;22.41;68.56
25232;BME280;13176;51.140;6.290;2023-10-19T10:59:46;98509.81;;;21.97;70.20
25232;BME280;13176;51.140;6.290;2023-10-19T11:02:19;98531.94;;;21.88;71.50
25232;BME280;13176;51.140;6.290;2023-10-19T11:04:47;98545.97;;;21.72;72.80
25232;BME280;13176;51.140;6.290;2023-10-19T11:07:18;98505.22;;;21.35;72.86
25232;BME280;13176;51.140;6.290;2023-10-19T11:09:48;98406.13;;;20.79;73.63
25232;BME280;13176;51.140;6.290;2023-10-19T11:12:15;98504.47;;;21.52;74.62
25232;BME280;13176;51.140;6.290;2023-10-19T11:14:55;98485.88;;;21.52;73.61
25232;BME280;13176;51.140;6.290;2023-10-19T11:17:24;98522.50;;;21.67;73.37
25232;BME280;13176;51.140;6.290;2023-10-19T11:19:55;98400.56;;;20.91;73.78
25232;BME280;13176;51.140;6.290;2023-10-19T11:22:25;98534.41;;;21.63;74.00
25232;BME280;13176;51.140;6.290;2023-10-19T11:24:53;98517.19;;;21.58;73.46
25232;BME280;13176;51.140;6.290;2023-10-19T11:27:27;98527.41;;;21.62;74.16
25232;BME280;13176;51.140;6.290;2023-10-19T11:29:58;98515.94;;;21.52;73.96
25232;BME280;13176;51.140;6.290;2023-10-19T11:32:25;98497.38;;;21.43;74.47
25232;BME280;13176;51.140;6.290;2023-10-19T11:34:53;98488.19;;;21.28;74.40
25232;BME280;13176;51.140;6.290;2023-10-19T11:37:20;98491.94;;;21.35;74.69
25232;BME280;13176;51.140;6.290;2023-10-19T11:39:50;98489.28;;;21.35;74.56
25232;BME280;13176;51.140;6.290;2023-10-19T11:42:17;98505.22;;;21.35;73.45
25232;BME280;13176;51.140;6.290;2023-10-19T11:44:44;98434.91;;;20.93;73.39
25232;BME280;13176;51.140;6.290;2023-10-19T11:47:12;98457.38;;;21.08;73.85
25232;BME280;13176;51.140;6.290;2023-10-19T11:49:39;98485.38;;;21.39;73.65
25232;BME280;13176;51.140;6.290;2023-10-19T11:52:06;98457.75;;;21.32;73.97
25232;BME280;13176;51.140;6.290;2023-10-19T11:54:40;98479.22;;;21.38;74.12
25232;BME280;13176;51.140;6.290;2023-10-19T11:57:09;98464.16;;;21.39;74.67
25232;BME280;13176;51.140;6.290;2023-10-19T11:59:36;98489.53;;;21.51;74.47
25232;BME280;13176;51.140;6.290;2023-10-19T12:02:02;98443.94;;;21.19;75.24
25232;BME280;13176;51.140;6.290;2023-10-19T12:04:30;98471.41;;;21.37;74.65
25232;BME280;13176;51.140;6.290;2023-10-19T12:06:59;98486.88;;;21.51;74.81
25232;BME280;13176;51.140;6.290;2023-10-19T12:09:27;98459.13;;;21.36;74.59
25232;BME280;13176;51.140;6.290;2023-10-19T12:11:54;98485.38;;;21.39;74.92
25232;BME280;13176;51.140;6.290;2023-10-19T12:14:21;98468.88;;;21.35;74.80
25232;BME280;13176;51.140;6.290;2023-10-19T12:16:49;98428.97;;;21.18;74.45
25232;BME280;13176;51.140;6.290;2023-10-19T12:19:15;98489.53;;;21.51;74.79
25232;BME280;13176;51.140;6.290;2023-10-19T12:21:44;98473.34;;;21.44;75.09
25232;BME280;13176;51.140;6.290;2023-10-19T12:24:10;98464.84;;;21.41;75.15
25232;BME280;13176;51.140;6.290;2023-10-19T12:26:37;98486.19;;;21.49;75.13
25232;BME280;13176;51.140;6.290;2023-10-19T12:29:04;98436.53;;;21.13;74.71
25232;BME280;13176;51.140;6.290;2023-10-19T12:31:35;98470.44;;;21.38;75.38
25232;BME280;13176;51.140;6.290;2023-10-19T12:34:02;98451.84;;;21.38;76.08
25232;BME280;13176;51.140;6.290;2023-10-19T12:36:33;98456.44;;;21.45;76.38
25232;BME280;13176;51.140;6.290;2023-10-19T12:39:01;98450.72;;;21.40;75.54
25232;BME280;13176;51.140;6.290;2023-10-19T12:41:28;98442.06;;;21.48;75.56
25232;BME280;13176;51.140;6.290;2023-10-19T12:43:54;98442.19;;;21.46;75.29
25232;BME280;13176;51.140;6.290;2023-10-19T12:46:24;98477.81;;;21.63;74.98
25232;BME280;13176;51.140;6.290;2023-10-19T12:48:57;98454.63;;;21.46;75.12
25232;BME280;13176;51.140;6.290;2023-10-19T12:51:25;98465.50;;;21.52;74.82
25232;BME280;13176;51.140;6.290;2023-10-19T12:53:55;98458.28;;;21.45;74.60
25232;BME280;13176;51.140;6.290;2023-10-19T12:56:22;98475.69;;;21.57;75.18
25232;BME280;13176;51.140;6.290;2023-10-19T12:58:55;98434.28;;;21.27;75.21
25232;BME280;13176;51.140;6.290;2023-10-19T13:01:21;98439.00;;;21.33;75.04
25232;BME280;13176;51.140;6.290;2023-10-19T13:03:48;98474.44;;;21.51;74.98
25232;BME280;13176;51.140;6.290;2023-10-19T13:06:17;98441.53;;;21.35;75.29
25232;BME280;13176;51.140;6.290;2023-10-19T13:08:43;98469.97;;;21.52;74.76
25232;BME280;13176;51.140;6.290;2023-10-19T13:11:10;98441.25;;;21.38;75.69
25232;BME280;13176;51.140;6.290;2023-10-19T13:13:44;98428.38;;;21.33;75.96
25232;BME280;13176;51.140;6.290;2023-10-19T13:16:10;98386.84;;;21.05;76.84
25232;BME280;13176;51.140;6.290;2023-10-19T13:18:37;98416.41;;;21.20;77.35
25232;BME280;13176;51.140;6.290;2023-10-19T13:21:07;98450.03;;;21.38;76.66
25232;BME280;13176;51.140;6.290;2023-10-19T13:23:37;98430.53;;;21.20;77.79
25232;BME280;13176;51.140;6.290;2023-10-19T13:26:04;98423.13;;;21.14;78.12
25232;BME280;13176;51.140;6.290;2023-10-19T13:28:37;98450.59;;;21.32;78.75
25232;BME280;13176;51.140;6.290;2023-10-19T13:31:04;98446.56;;;21.19;80.27